sensor_id;sensor_type;location;lat;lon;timestamp;temperature;humidity
21580;DHT22;10951;59.656;9.666;2023-07-13T00:01:54;14.10;99.90
21580;DHT22;10951;59.656;9.666;2023-07-13T00:04:23;14.00;99.90
21580;DHT22;10951;59.656;9.666;2023-07-13T00:06:53;14.00;99.90
21580;DHT22;10951;59.656;9.666;2023-07-13T00:09:21;13.90;99.90
21580;DHT22;10951;59.656;9.666;2023-07-13T00:11:54;13.90;99.90
21580;DHT22;10951;59.656;9.666;2023-07-13T00:14:22;13.80;99.90
21580;DHT22;10951;59.656;9.666;2023-07-13T00:16:49;13.80;99.90
21580;DHT22;10951;59.656;9.666;2023-07-13T00:19:16;13.80;99.90
21580;DHT22;10951;59.656;9.666;2023-07-13T00:21:44;13.70;99.90
21580;DHT22;10951;59.656;9.666;2023-07-13T00:24:15;13.70;99.90
21580;DHT22;10951;59.656;9.666;2023-07-13T00:26:42;13.70;99.90
21580;DHT22;10951;59.656;9.666;2023-07-13T00:29:13;13.60;99.90
21580;DHT22;10951;59.656;9.666;2023-07-13T00:31:40;13.60;99.90
21580;DHT22;10951;59.656;9.666;2023-07-13T00:34:07;13.50;99.90
21580;DHT22;10951;59.656;9.666;2023-07-13T00:36:34;13.50;99.90
21580;DHT22;10951;59.656;9.666;2023-07-13T00:39:02;13.40;99.90
21580;DHT22;10951;59.656;9.666;2023-07-13T00:41:31;13.40;99.90
21580;DHT22;10951;59.656;9.666;2023-07-13T00:43:58;13.40;99.90
21580;DHT22;10951;59.656;9.666;2023-07-13T00:46:31;13.40;99.90
21580;DHT22;10951;59.656;9.666;2023-07-13T00:49:05;13.40;99.90
21580;DHT22;10951;59.656;9.666;2023-07-13T00:51:40;13.30;99.90
21580;DHT22;10951;59.656;9.666;2023-07-13T00:54:15;13.30;99.90
21580;DHT22;10951;59.656;9.666;2023-07-13T00:56:46;13.10;99.90
21580;DHT22;10951;59.656;9.666;2023-07-13T00:59:15;13.10;99.90
21580;DHT22;10951;59.656;9.666;2023-07-13T01:01:45;13.10;99.90
21580;DHT22;10951;59.656;9.666;2023-07-13T01:04:12;13.10;99.90
21580;DHT22;10951;59.656;9.666;2023-07-13T01:06:41;13.10;99.90
21580;DHT22;10951;59.656;9.666;2023-07-13T01:09:11;13.00;99.90
21580;DHT22;10951;59.656;9.666;2023-07-13T01:11:39;13.00;99.90
21580;DHT22;10951;59.656;9.666;2023-07-13T01:14:08;13.00;99.90
21580;DHT22;10951;59.656;9.666;2023-07-13T01:16:36;13.00;99.90
21580;DHT22;10951;59.656;9.666;2023-07-13T01:19:20;13.00;99.90
21580;DHT22;10951;59.656;9.666;2023-07-13T01:21:52;13.00;99.90
21580;DHT22;10951;59.656;9.666;2023-07-13T01:24:20;13.00;99.90
21580;DHT22;10951;59.656;9.666;2023-07-13T01:26:48;13.00;99.90
21580;DHT22;10951;59.656;9.666;2023-07-13T01:29:15;13.00;99.90
21580;DHT22;10951;59.656;9.666;2023-07-13T01:31:42;12.90;99.90
21580;DHT22;10951;59.656;9.666;2023-07-13T01:34:11;12.90;99.90
21580;DHT22;10951;59.656;9.666;2023-07-13T01:36:38;12.90;99.90
21580;DHT22;10951;59.656;9.666;2023-07-13T01:39:06;12.90;99.90
21580;DHT22;10951;59.656;9.666;2023-07-13T01:41:34;12.80;99.90
21580;DHT22;10951;59.656;9.666;2023-07-13T01:44:01;12.90;99.90
21580;DHT22;10951;59.656;9.666;2023-07-13T01:46:30;12.90;99.90
21580;DHT22;10951;59.656;9.666;2023-07-13T01:48:57;12.90;99.90
21580;DHT22;10951;59.656;9.666;2023-07-13T01:51:24;12.90;99.90
21580;DHT22;10951;59.656;9.666;2023-07-13T01:53:51;12.80;99.90
21580;DHT22;10951;59.656;9.666;2023-07-13T01:56:18;12.80;99.90
21580;DHT22;10951;59.656;9.666;2023-07-13T01:58:46;12.90;99.90
21580;DHT22;10951;59.656;9.666;2023-07-13T02:01:13;12.90;99.90
21580;DHT22;10951;59.656;9.666;2023-07-13T02:03:41;12.80;99.90
21580;DHT22;10951;59.656;9.666;2023-07-13T02:06:08;12.80;99.90
21580;DHT22;10951;59.656;9.666;2023-07-13T02:08:35;12.70;99.90
21580;DHT22;10951;59.656;9.666;2023-07-13T02:11:03;12.70;99.90
21580;DHT22;10951;59.656;9.666;2023-07-13T02:13:30;12.70;99.90
21580;DHT22;10951;59.656;9.666;2023-07-13T02:15:57;12.70;99.90
21580;DHT22;10951;59.656;9.666;2023-07-13T02:18:24;12.70;99.90
21580;DHT22;10951;59.656;9.666;2023-07-13T02:20:51;12.70;99.90
21580;DHT22;10951;59.656;9.666;2023-07-13T02:23:18;12.60;99.90
21580;DHT22;10951;59.656;9.666;2023-07-13T02:25:46;12.60;99.90
21580;DHT22;10951;59.656;9.666;2023-07-13T02:28:15;12.60;99.90
21580;DHT22;10951;59.656;9.666;2023-07-13T02:30:43;12.60;99.90
21580;DHT22;10951;59.656;9.666;2023-07-13T02:33:10;12.60;99.90
21580;DHT22;10951;59.656;9.666;2023-07-13T02:35:40;12.60;99.90
21580;DHT22;10951;59.656;9.666;2023-07-13T02:38:07;12.70;99.90
21580;DHT22;10951;59.656;9.666;2023-07-13T02:40:35;12.60;99.90
21580;DHT22;10951;59.656;9.666;2023-07-13T02:43:03;12.60;99.90
21580;DHT22;10951;59.656;9.666;2023-07-13T02:45:31;12.60;99.90
21580;DHT22;10951;59.656;9.666;2023-07-13T02:47:58;12.50;99.90
21580;DHT22;10951;59.656;9.666;2023-07-13T02:50:25;12.60;99.90
21580;DHT22;10951;59.656;9.666;2023-07-13T02:52:52;12.60;99.90
21580;DHT22;10951;59.656;9.666;2023-07-13T02:55:21;12.60;99.90
21580;DHT22;10951;59.656;9.666;2023-07-13T02:57:48;12.50;99.90
21580;DHT22;10951;59.656;9.666;2023-07-13T03:00:17;12.50;99.90
21580;DHT22;10951;59.656;9.666;2023-07-13T03:02:44;12.40;99.90
21580;DHT22;10951;59.656;9.666;2023-07-13T03:05:12;12.40;99.90
21580;DHT22;10951;59.656;9.666;2023-07-13T03:07:41;12.40;99.90
21580;DHT22;10951;59.656;9.666;2023-07-13T03:10:09;12.40;99.90
21580;DHT22;10951;59.656;9.666;2023-07-13T03:12:43;12.40;99.90
21580;DHT22;10951;59.656;9.666;2023-07-13T03:15:17;12.40;99.90
21580;DHT22;10951;59.656;9.666;2023-07-13T03:17:46;12.30;99.90
21580;DHT22;10951;59.656;9.666;2023-07-13T03:20:16;12.30;99.90
21580;DHT22;10951;59.656;9.666;2023-07-13T03:22:46;12.30;99.90
21580;DHT22;10951;59.656;9.666;2023-07-13T03:25:18;12.40;99.90
21580;DHT22;10951;59.656;9.666;2023-07-13T03:27:45;12.30;99.90
21580;DHT22;10951;59.656;9.666;2023-07-13T03:30:12;12.30;99.90
21580;DHT22;10951;59.656;9.666;2023-07-13T03:32:41;12.30;99.90
21580;DHT22;10951;59.656;9.666;2023-07-13T03:35:09;12.40;99.90
21580;DHT22;10951;59.656;9.666;2023-07-13T03:37:37;12.40;99.90
21580;DHT22;10951;59.656;9.666;2023-07-13T03:40:13;12.50;99.90
21580;DHT22;10951;59.656;9.666;2023-07-13T03:42:43;12.50;99.90
21580;DHT22;10951;59.656;9.666;2023-07-13T03:45:11;12.50;99.90
21580;DHT22;10951;59.656;9.666;2023-07-13T03:47:40;12.50;99.90
21580;DHT22;10951;59.656;9.666;2023-07-13T03:50:07;12.50;99.90
21580;DHT22;10951;59.656;9.666;2023-07-13T03:52:35;12.60;99.90
21580;DHT22;10951;59.656;9.666;2023-07-13T03:55:02;12.60;99.90
21580;DHT22;10951;59.656;9.666;2023-07-13T03:57:29;12.70;99.90
21580;DHT22;10951;59.656;9.666;2023-07-13T03:59:57;12.70;99.90
21580;DHT22;10951;59.656;9.666;2023-07-13T04:02:28;12.80;99.90
21580;DHT22;10951;59.656;9.666;2023-07-13T04:04:55;12.80;99.90
21580;DHT22;10951;59.656;9.666;2023-07-13T04:07:23;12.80;99.90
21580;DHT22;10951;59.656;9.666;2023-07-13T04:09:50;12.90;99.90
21580;DHT22;10951;59.656;9.666;2023-07-13T04:12:17;13.00;99.90
21580;DHT22;10951;59.656;9.666;2023-07-13T04:14:45;13.10;99.90
21580;DHT22;10951;59.656;9.666;2023-07-13T04:17:12;13.10;99.90
21580;DHT22;10951;59.656;9.666;2023-07-13T04:19:39;13.10;99.90
21580;DHT22;10951;59.656;9.666;2023-07-13T04:22:06;13.20;99.90
21580;DHT22;10951;59.656;9.666;2023-07-13T04:24:33;13.20;99.90
21580;DHT22;10951;59.656;9.666;2023-07-13T04:27:00;13.20;99.90
21580;DHT22;10951;59.656;9.666;2023-07-13T04:29:29;13.30;99.90
21580;DHT22;10951;59.656;9.666;2023-07-13T04:31:56;13.30;99.90
21580;DHT22;10951;59.656;9.666;2023-07-13T04:34:24;13.40;99.90
21580;DHT22;10951;59.656;9.666;2023-07-13T04:36:51;13.40;99.90
21580;DHT22;10951;59.656;9.666;2023-07-13T04:39:19;13.50;99.90
21580;DHT22;10951;59.656;9.666;2023-07-13T04:41:47;13.60;99.90
21580;DHT22;10951;59.656;9.666;2023-07-13T04:44:14;13.60;99.90
21580;DHT22;10951;59.656;9.666;2023-07-13T04:46:41;13.70;99.90
21580;DHT22;10951;59.656;9.666;2023-07-13T04:49:08;13.80;99.90
21580;DHT22;10951;59.656;9.666;2023-07-13T04:51:35;13.90;99.90
21580;DHT22;10951;59.656;9.666;2023-07-13T04:54:02;13.90;99.90
21580;DHT22;10951;59.656;9.666;2023-07-13T04:56:29;14.00;99.90
21580;DHT22;10951;59.656;9.666;2023-07-13T04:58:57;14.00;99.90
21580;DHT22;10951;59.656;9.666;2023-07-13T05:01:25;14.00;99.90
21580;DHT22;10951;59.656;9.666;2023-07-13T05:03:52;14.00;99.90
21580;DHT22;10951;59.656;9.666;2023-07-13T05:06:19;14.10;99.90
21580;DHT22;10951;59.656;9.666;2023-07-13T05:08:46;14.20;99.90
21580;DHT22;10951;59.656;9.666;2023-07-13T05:11:13;14.30;99.90
21580;DHT22;10951;59.656;9.666;2023-07-13T05:13:40;14.60;99.90
21580;DHT22;10951;59.656;9.666;2023-07-13T05:16:08;14.80;99.90
21580;DHT22;10951;59.656;9.666;2023-07-13T05:18:36;15.20;99.90
21580;DHT22;10951;59.656;9.666;2023-07-13T05:21:07;15.60;99.90
21580;DHT22;10951;59.656;9.666;2023-07-13T05:23:36;16.10;99.90
21580;DHT22;10951;59.656;9.666;2023-07-13T05:26:04;16.50;99.90
21580;DHT22;10951;59.656;9.666;2023-07-13T05:28:35;16.80;99.90
21580;DHT22;10951;59.656;9.666;2023-07-13T05:31:04;17.00;99.10
21580;DHT22;10951;59.656;9.666;2023-07-13T05:33:31;17.20;98.00
21580;DHT22;10951;59.656;9.666;2023-07-13T05:35:58;17.40;97.00
21580;DHT22;10951;59.656;9.666;2023-07-13T05:38:28;17.50;97.20
21580;DHT22;10951;59.656;9.666;2023-07-13T05:40:56;17.50;97.90
21580;DHT22;10951;59.656;9.666;2023-07-13T05:43:24;17.50;98.10
21580;DHT22;10951;59.656;9.666;2023-07-13T05:45:53;17.40;98.30
21580;DHT22;10951;59.656;9.666;2023-07-13T05:48:21;17.40;98.20
21580;DHT22;10951;59.656;9.666;2023-07-13T05:50:48;17.40;97.30
21580;DHT22;10951;59.656;9.666;2023-07-13T05:53:16;17.30;97.30
21580;DHT22;10951;59.656;9.666;2023-07-13T05:55:44;17.20;97.10
21580;DHT22;10951;59.656;9.666;2023-07-13T05:58:11;17.10;97.20
21580;DHT22;10951;59.656;9.666;2023-07-13T06:00:39;17.10;96.50
21580;DHT22;10951;59.656;9.666;2023-07-13T06:03:07;17.20;96.90
21580;DHT22;10951;59.656;9.666;2023-07-13T06:05:35;17.30;97.40
21580;DHT22;10951;59.656;9.666;2023-07-13T06:08:03;17.30;96.40
21580;DHT22;10951;59.656;9.666;2023-07-13T06:10:34;17.30;96.90
21580;DHT22;10951;59.656;9.666;2023-07-13T06:13:04;17.30;96.50
21580;DHT22;10951;59.656;9.666;2023-07-13T06:15:31;17.30;96.20
21580;DHT22;10951;59.656;9.666;2023-07-13T06:17:58;17.20;95.80
21580;DHT22;10951;59.656;9.666;2023-07-13T06:20:25;17.20;96.30
21580;DHT22;10951;59.656;9.666;2023-07-13T06:22:52;17.20;96.40
21580;DHT22;10951;59.656;9.666;2023-07-13T06:25:19;17.10;96.90
21580;DHT22;10951;59.656;9.666;2023-07-13T06:27:46;17.10;97.30
21580;DHT22;10951;59.656;9.666;2023-07-13T06:30:16;17.00;96.90
21580;DHT22;10951;59.656;9.666;2023-07-13T06:32:43;17.00;97.00
21580;DHT22;10951;59.656;9.666;2023-07-13T06:35:10;17.00;96.40
21580;DHT22;10951;59.656;9.666;2023-07-13T06:37:39;17.00;96.80
21580;DHT22;10951;59.656;9.666;2023-07-13T06:40:09;16.90;97.10
21580;DHT22;10951;59.656;9.666;2023-07-13T06:42:36;16.90;97.00
21580;DHT22;10951;59.656;9.666;2023-07-13T06:45:05;16.90;96.70
21580;DHT22;10951;59.656;9.666;2023-07-13T06:47:32;16.90;97.10
21580;DHT22;10951;59.656;9.666;2023-07-13T06:50:00;16.90;96.70
21580;DHT22;10951;59.656;9.666;2023-07-13T06:52:27;16.80;96.70
21580;DHT22;10951;59.656;9.666;2023-07-13T06:54:54;16.80;97.10
21580;DHT22;10951;59.656;9.666;2023-07-13T06:57:21;16.90;97.40
21580;DHT22;10951;59.656;9.666;2023-07-13T06:59:49;17.00;97.10
21580;DHT22;10951;59.656;9.666;2023-07-13T07:02:16;17.20;97.50
21580;DHT22;10951;59.656;9.666;2023-07-13T07:04:43;17.40;96.60
21580;DHT22;10951;59.656;9.666;2023-07-13T07:07:10;17.40;95.40
21580;DHT22;10951;59.656;9.666;2023-07-13T07:09:37;17.50;95.60
21580;DHT22;10951;59.656;9.666;2023-07-13T07:12:04;17.50;95.40
21580;DHT22;10951;59.656;9.666;2023-07-13T07:14:31;17.60;95.20
21580;DHT22;10951;59.656;9.666;2023-07-13T07:16:58;17.80;94.90
21580;DHT22;10951;59.656;9.666;2023-07-13T07:19:29;18.00;95.20
21580;DHT22;10951;59.656;9.666;2023-07-13T07:21:58;18.30;94.20
21580;DHT22;10951;59.656;9.666;2023-07-13T07:24:25;18.70;94.00
21580;DHT22;10951;59.656;9.666;2023-07-13T07:26:55;18.80;92.50
21580;DHT22;10951;59.656;9.666;2023-07-13T07:29:25;18.90;92.60
21580;DHT22;10951;59.656;9.666;2023-07-13T07:31:59;18.90;92.10
21580;DHT22;10951;59.656;9.666;2023-07-13T07:34:32;19.00;91.30
21580;DHT22;10951;59.656;9.666;2023-07-13T07:37:03;19.10;90.60
21580;DHT22;10951;59.656;9.666;2023-07-13T07:39:33;19.20;90.90
21580;DHT22;10951;59.656;9.666;2023-07-13T07:42:00;19.50;90.30
21580;DHT22;10951;59.656;9.666;2023-07-13T07:44:27;19.70;89.40
21580;DHT22;10951;59.656;9.666;2023-07-13T07:46:55;19.90;86.80
21580;DHT22;10951;59.656;9.666;2023-07-13T07:49:22;19.90;86.50
21580;DHT22;10951;59.656;9.666;2023-07-13T07:51:49;20.00;85.20
21580;DHT22;10951;59.656;9.666;2023-07-13T07:54:16;20.20;83.20
21580;DHT22;10951;59.656;9.666;2023-07-13T07:56:55;20.40;83.70
21580;DHT22;10951;59.656;9.666;2023-07-13T07:59:42;20.60;83.40
21580;DHT22;10951;59.656;9.666;2023-07-13T08:02:12;20.90;82.80
21580;DHT22;10951;59.656;9.666;2023-07-13T08:04:59;21.00;79.50
21580;DHT22;10951;59.656;9.666;2023-07-13T08:07:30;21.10;77.10
21580;DHT22;10951;59.656;9.666;2023-07-13T08:09:58;21.10;76.10
21580;DHT22;10951;59.656;9.666;2023-07-13T08:12:25;21.10;74.00
21580;DHT22;10951;59.656;9.666;2023-07-13T08:14:55;21.10;75.00
21580;DHT22;10951;59.656;9.666;2023-07-13T08:17:25;21.20;76.20
21580;DHT22;10951;59.656;9.666;2023-07-13T08:19:52;21.30;74.00
21580;DHT22;10951;59.656;9.666;2023-07-13T08:22:19;21.20;73.20
21580;DHT22;10951;59.656;9.666;2023-07-13T08:24:46;21.30;73.10
21580;DHT22;10951;59.656;9.666;2023-07-13T08:27:24;21.30;71.90
21580;DHT22;10951;59.656;9.666;2023-07-13T08:29:51;21.30;72.50
21580;DHT22;10951;59.656;9.666;2023-07-13T08:32:19;21.40;70.90
21580;DHT22;10951;59.656;9.666;2023-07-13T08:34:47;21.50;72.40
21580;DHT22;10951;59.656;9.666;2023-07-13T08:37:15;21.60;69.50
21580;DHT22;10951;59.656;9.666;2023-07-13T08:39:41;21.60;70.10
21580;DHT22;10951;59.656;9.666;2023-07-13T08:47:16;21.20;66.60
21580;DHT22;10951;59.656;9.666;2023-07-13T08:49:44;21.10;65.90
21580;DHT22;10951;59.656;9.666;2023-07-13T08:54:52;21.10;65.30
21580;DHT22;10951;59.656;9.666;2023-07-13T08:57:28;21.20;64.60
21580;DHT22;10951;59.656;9.666;2023-07-13T08:59:58;21.20;62.90
21580;DHT22;10951;59.656;9.666;2023-07-13T09:02:39;21.30;65.90
21580;DHT22;10951;59.656;9.666;2023-07-13T09:05:25;21.50;65.00
21580;DHT22;10951;59.656;9.666;2023-07-13T09:10:48;21.60;63.40
21580;DHT22;10951;59.656;9.666;2023-07-13T09:15:50;22.00;63.70
21580;DHT22;10951;59.656;9.666;2023-07-13T09:18:32;22.10;65.10
21580;DHT22;10951;59.656;9.666;2023-07-13T09:21:05;22.20;63.60
21580;DHT22;10951;59.656;9.666;2023-07-13T09:23:35;22.30;62.20
21580;DHT22;10951;59.656;9.666;2023-07-13T09:26:04;22.50;63.20
21580;DHT22;10951;59.656;9.666;2023-07-13T09:28:41;22.60;59.40
21580;DHT22;10951;59.656;9.666;2023-07-13T09:31:52;22.70;62.10
21580;DHT22;10951;59.656;9.666;2023-07-13T09:34:11;22.90;60.70
21580;DHT22;10951;59.656;9.666;2023-07-13T09:36:39;23.10;60.10
21580;DHT22;10951;59.656;9.666;2023-07-13T09:42:00;23.20;58.50
21580;DHT22;10951;59.656;9.666;2023-07-13T09:44:30;23.30;60.80
21580;DHT22;10951;59.656;9.666;2023-07-13T09:46:58;23.20;59.10
21580;DHT22;10951;59.656;9.666;2023-07-13T09:49:28;23.30;60.20
21580;DHT22;10951;59.656;9.666;2023-07-13T09:52:03;23.40;59.80
21580;DHT22;10951;59.656;9.666;2023-07-13T09:54:33;23.50;59.60
21580;DHT22;10951;59.656;9.666;2023-07-13T09:57:02;23.70;60.30
21580;DHT22;10951;59.656;9.666;2023-07-13T09:59:32;23.70;57.50
21580;DHT22;10951;59.656;9.666;2023-07-13T10:02:00;23.80;58.10
21580;DHT22;10951;59.656;9.666;2023-07-13T10:04:31;23.80;57.30
21580;DHT22;10951;59.656;9.666;2023-07-13T10:07:07;23.70;58.30
21580;DHT22;10951;59.656;9.666;2023-07-13T10:09:55;23.60;57.20
21580;DHT22;10951;59.656;9.666;2023-07-13T10:12:23;23.60;58.70
21580;DHT22;10951;59.656;9.666;2023-07-13T10:14:55;23.60;59.30
21580;DHT22;10951;59.656;9.666;2023-07-13T10:17:43;23.60;57.20
21580;DHT22;10951;59.656;9.666;2023-07-13T10:20:11;23.60;57.20
21580;DHT22;10951;59.656;9.666;2023-07-13T10:22:46;23.50;54.90
21580;DHT22;10951;59.656;9.666;2023-07-13T10:25:21;23.40;57.20
21580;DHT22;10951;59.656;9.666;2023-07-13T10:27:52;23.30;58.40
21580;DHT22;10951;59.656;9.666;2023-07-13T10:30:27;23.40;58.00
21580;DHT22;10951;59.656;9.666;2023-07-13T10:32:58;23.40;56.90
21580;DHT22;10951;59.656;9.666;2023-07-13T10:35:28;23.30;56.60
21580;DHT22;10951;59.656;9.666;2023-07-13T10:40:33;23.10;58.00
21580;DHT22;10951;59.656;9.666;2023-07-13T10:43:06;22.80;58.40
21580;DHT22;10951;59.656;9.666;2023-07-13T10:45:40;22.70;59.80
21580;DHT22;10951;59.656;9.666;2023-07-13T10:48:10;22.80;59.30
21580;DHT22;10951;59.656;9.666;2023-07-13T10:50:44;22.90;59.90
21580;DHT22;10951;59.656;9.666;2023-07-13T10:53:28;23.10;58.90
21580;DHT22;10951;59.656;9.666;2023-07-13T10:56:00;23.20;58.00
21580;DHT22;10951;59.656;9.666;2023-07-13T10:58:33;23.40;58.70
21580;DHT22;10951;59.656;9.666;2023-07-13T11:01:08;23.70;58.60
21580;DHT22;10951;59.656;9.666;2023-07-13T11:06:37;24.10;56.30
21580;DHT22;10951;59.656;9.666;2023-07-13T11:09:37;23.90;54.90
21580;DHT22;10951;59.656;9.666;2023-07-13T11:15:44;22.90;56.10
21580;DHT22;10951;59.656;9.666;2023-07-13T11:18:23;22.50;56.90
21580;DHT22;10951;59.656;9.666;2023-07-13T11:20:52;22.20;57.50
21580;DHT22;10951;59.656;9.666;2023-07-13T11:23:42;22.10;58.10
21580;DHT22;10951;59.656;9.666;2023-07-13T11:32:00;22.50;60.40
21580;DHT22;10951;59.656;9.666;2023-07-13T11:34:31;22.90;60.00
21580;DHT22;10951;59.656;9.666;2023-07-13T11:37:01;23.40;58.70
21580;DHT22;10951;59.656;9.666;2023-07-13T11:39:36;23.60;56.40
21580;DHT22;10951;59.656;9.666;2023-07-13T11:42:15;23.50;55.90
21580;DHT22;10951;59.656;9.666;2023-07-13T11:44:46;23.60;56.70
21580;DHT22;10951;59.656;9.666;2023-07-13T11:47:33;23.60;55.20
21580;DHT22;10951;59.656;9.666;2023-07-13T11:50:03;23.50;54.20
21580;DHT22;10951;59.656;9.666;2023-07-13T11:52:35;23.50;55.10
21580;DHT22;10951;59.656;9.666;2023-07-13T11:55:14;23.50;55.80
21580;DHT22;10951;59.656;9.666;2023-07-13T11:57:51;23.70;55.70
21580;DHT22;10951;59.656;9.666;2023-07-13T12:00:26;23.80;53.00
21580;DHT22;10951;59.656;9.666;2023-07-13T12:02:57;23.80;54.30
21580;DHT22;10951;59.656;9.666;2023-07-13T12:05:26;23.90;53.80
21580;DHT22;10951;59.656;9.666;2023-07-13T12:07:54;24.00;54.70
21580;DHT22;10951;59.656;9.666;2023-07-13T12:10:29;24.20;55.00
21580;DHT22;10951;59.656;9.666;2023-07-13T12:13:05;24.40;53.90
21580;DHT22;10951;59.656;9.666;2023-07-13T12:15:41;24.60;53.60
21580;DHT22;10951;59.656;9.666;2023-07-13T12:18:14;24.70;52.90
21580;DHT22;10951;59.656;9.666;2023-07-13T12:20:43;24.70;52.80
21580;DHT22;10951;59.656;9.666;2023-07-13T12:25:57;24.50;53.50
21580;DHT22;10951;59.656;9.666;2023-07-13T12:28:35;24.50;53.60
21580;DHT22;10951;59.656;9.666;2023-07-13T12:31:19;24.20;53.30
21580;DHT22;10951;59.656;9.666;2023-07-13T12:34:18;23.90;53.50
21580;DHT22;10951;59.656;9.666;2023-07-13T12:36:49;23.70;54.30
21580;DHT22;10951;59.656;9.666;2023-07-13T12:39:28;23.60;54.60
21580;DHT22;10951;59.656;9.666;2023-07-13T12:45:31;23.80;53.20
21580;DHT22;10951;59.656;9.666;2023-07-13T12:47:56;23.80;51.70
21580;DHT22;10951;59.656;9.666;2023-07-13T12:50:39;23.70;51.90
21580;DHT22;10951;59.656;9.666;2023-07-13T12:53:17;23.70;52.90
21580;DHT22;10951;59.656;9.666;2023-07-13T12:55:48;23.70;54.70
21580;DHT22;10951;59.656;9.666;2023-07-13T13:00:50;23.80;54.60
21580;DHT22;10951;59.656;9.666;2023-07-13T13:06:00;23.30;54.40
21580;DHT22;10951;59.656;9.666;2023-07-13T13:08:34;23.10;55.00
21580;DHT22;10951;59.656;9.666;2023-07-13T13:11:02;22.80;54.60
21580;DHT22;10951;59.656;9.666;2023-07-13T13:13:29;22.60;55.30
21580;DHT22;10951;59.656;9.666;2023-07-13T13:16:02;22.30;56.10
21580;DHT22;10951;59.656;9.666;2023-07-13T13:18:33;22.00;56.10
21580;DHT22;10951;59.656;9.666;2023-07-13T13:21:00;21.70;56.90
21580;DHT22;10951;59.656;9.666;2023-07-13T13:23:27;21.50;57.20
21580;DHT22;10951;59.656;9.666;2023-07-13T13:25:55;21.30;58.40
21580;DHT22;10951;59.656;9.666;2023-07-13T13:28:22;21.20;59.20
21580;DHT22;10951;59.656;9.666;2023-07-13T13:30:50;21.20;60.00
21580;DHT22;10951;59.656;9.666;2023-07-13T13:33:19;21.00;61.90
21580;DHT22;10951;59.656;9.666;2023-07-13T13:35:47;20.90;64.40
21580;DHT22;10951;59.656;9.666;2023-07-13T13:38:20;20.60;65.20
21580;DHT22;10951;59.656;9.666;2023-07-13T13:40:47;20.50;65.10
21580;DHT22;10951;59.656;9.666;2023-07-13T13:43:22;20.30;65.70
21580;DHT22;10951;59.656;9.666;2023-07-13T13:45:57;20.40;67.90
21580;DHT22;10951;59.656;9.666;2023-07-13T13:48:31;20.50;66.50
21580;DHT22;10951;59.656;9.666;2023-07-13T13:51:00;20.60;65.90
21580;DHT22;10951;59.656;9.666;2023-07-13T13:53:28;20.70;65.80
21580;DHT22;10951;59.656;9.666;2023-07-13T13:55:55;20.70;66.00
21580;DHT22;10951;59.656;9.666;2023-07-13T13:58:22;20.70;65.10
21580;DHT22;10951;59.656;9.666;2023-07-13T14:00:49;20.70;65.80
21580;DHT22;10951;59.656;9.666;2023-07-13T14:03:19;20.70;65.30
21580;DHT22;10951;59.656;9.666;2023-07-13T14:05:47;20.60;63.60
21580;DHT22;10951;59.656;9.666;2023-07-13T14:08:16;20.70;62.90
21580;DHT22;10951;59.656;9.666;2023-07-13T14:10:53;20.70;63.60
21580;DHT22;10951;59.656;9.666;2023-07-13T14:13:40;20.60;64.10
21580;DHT22;10951;59.656;9.666;2023-07-13T14:16:13;20.60;63.90
21580;DHT22;10951;59.656;9.666;2023-07-13T14:18:41;20.60;62.00
21580;DHT22;10951;59.656;9.666;2023-07-13T14:21:13;20.60;60.30
21580;DHT22;10951;59.656;9.666;2023-07-13T14:23:41;20.50;59.90
21580;DHT22;10951;59.656;9.666;2023-07-13T14:26:13;20.60;59.70
21580;DHT22;10951;59.656;9.666;2023-07-13T14:28:43;20.50;59.20
21580;DHT22;10951;59.656;9.666;2023-07-13T14:31:12;20.40;59.70
21580;DHT22;10951;59.656;9.666;2023-07-13T14:33:40;20.40;61.00
21580;DHT22;10951;59.656;9.666;2023-07-13T14:36:29;20.40;60.10
21580;DHT22;10951;59.656;9.666;2023-07-13T14:38:58;20.50;60.20
21580;DHT22;10951;59.656;9.666;2023-07-13T14:41:26;20.50;61.00
21580;DHT22;10951;59.656;9.666;2023-07-13T14:43:53;20.50;60.00
21580;DHT22;10951;59.656;9.666;2023-07-13T14:46:32;20.50;59.30
21580;DHT22;10951;59.656;9.666;2023-07-13T14:51:52;20.40;59.40
21580;DHT22;10951;59.656;9.666;2023-07-13T14:54:21;20.50;60.00
21580;DHT22;10951;59.656;9.666;2023-07-13T14:56:48;20.60;59.60
21580;DHT22;10951;59.656;9.666;2023-07-13T14:59:15;20.60;59.90
21580;DHT22;10951;59.656;9.666;2023-07-13T15:01:42;20.80;60.50
21580;DHT22;10951;59.656;9.666;2023-07-13T15:04:09;20.90;60.50
21580;DHT22;10951;59.656;9.666;2023-07-13T15:06:56;20.90;60.00
21580;DHT22;10951;59.656;9.666;2023-07-13T15:09:24;21.00;59.70
21580;DHT22;10951;59.656;9.666;2023-07-13T15:11:55;21.10;60.10
21580;DHT22;10951;59.656;9.666;2023-07-13T15:14:22;21.20;59.60
21580;DHT22;10951;59.656;9.666;2023-07-13T15:16:53;21.30;60.60
21580;DHT22;10951;59.656;9.666;2023-07-13T15:19:21;21.40;59.20
21580;DHT22;10951;59.656;9.666;2023-07-13T15:21:50;21.60;59.40
21580;DHT22;10951;59.656;9.666;2023-07-13T15:24:21;21.80;59.40
21580;DHT22;10951;59.656;9.666;2023-07-13T15:26:48;21.90;59.00
21580;DHT22;10951;59.656;9.666;2023-07-13T15:29:16;21.80;58.20
21580;DHT22;10951;59.656;9.666;2023-07-13T15:31:44;21.80;59.00
21580;DHT22;10951;59.656;9.666;2023-07-13T15:34:20;21.90;59.00
21580;DHT22;10951;59.656;9.666;2023-07-13T15:36:48;22.00;58.50
21580;DHT22;10951;59.656;9.666;2023-07-13T15:39:16;22.20;57.90
21580;DHT22;10951;59.656;9.666;2023-07-13T15:41:44;22.30;59.30
21580;DHT22;10951;59.656;9.666;2023-07-13T15:44:28;22.50;57.90
21580;DHT22;10951;59.656;9.666;2023-07-13T15:46:56;22.50;58.10
21580;DHT22;10951;59.656;9.666;2023-07-13T15:49:23;22.50;57.30
21580;DHT22;10951;59.656;9.666;2023-07-13T15:51:51;22.50;58.10
21580;DHT22;10951;59.656;9.666;2023-07-13T15:54:18;22.20;58.90
21580;DHT22;10951;59.656;9.666;2023-07-13T15:56:52;22.10;58.90
21580;DHT22;10951;59.656;9.666;2023-07-13T15:59:19;21.90;59.40
21580;DHT22;10951;59.656;9.666;2023-07-13T16:01:46;21.70;60.00
21580;DHT22;10951;59.656;9.666;2023-07-13T16:04:16;21.70;62.20
21580;DHT22;10951;59.656;9.666;2023-07-13T16:06:44;21.80;61.20
21580;DHT22;10951;59.656;9.666;2023-07-13T16:09:19;22.00;61.30
21580;DHT22;10951;59.656;9.666;2023-07-13T16:11:50;22.30;59.20
21580;DHT22;10951;59.656;9.666;2023-07-13T16:14:18;22.40;58.70
21580;DHT22;10951;59.656;9.666;2023-07-13T16:16:47;22.60;58.90
21580;DHT22;10951;59.656;9.666;2023-07-13T16:19:15;22.80;58.20
21580;DHT22;10951;59.656;9.666;2023-07-13T16:21:46;22.80;57.20
21580;DHT22;10951;59.656;9.666;2023-07-13T16:24:19;22.80;57.20
21580;DHT22;10951;59.656;9.666;2023-07-13T16:26:49;22.70;56.80
21580;DHT22;10951;59.656;9.666;2023-07-13T16:32:05;22.60;56.50
21580;DHT22;10951;59.656;9.666;2023-07-13T16:34:40;22.50;56.40
21580;DHT22;10951;59.656;9.666;2023-07-13T16:37:20;22.30;57.30